• Join FlightAware (Why Join?)
  • Login
  • US Flag 
12:13PM EDT


 

Airport Tracker/Info


-or-


 

Live Flight TrackerFlight Track Log ✈ LXJ342 ✈ 29-Aug-2013 ✈ KDAL - KMKC

Flight Track Log - Related Links

Times and Time Zones

All times are in EDT time to prevent confusion due to time zone crossing. See the LXJ342 flight status page for this flight to view local times or setup timezone preferences in your user account.

Time Position Orientation Groundspeed Altitude Reporting Facility
EDT Latitude Longitude Course Direction KTS MPH feet Rate Location/Type
10:47AM 32.8333 -96.8167 140° Southeast 191 220 1,200  Level Dallas / Fort Worth TRACON
10:48AM 32.8000 -96.7833 140° Southeast 239 275 2,700 2,760 Climbing Dallas / Fort Worth TRACON
10:49AM 32.7667 -96.7333 128° Southeast 236 272 5,700 2,940 Climbing Dallas / Fort Worth TRACON
10:50AM 32.8167 -96.7000 29° Northeast 277 319 8,700 2,820 Climbing Dallas / Fort Worth TRACON
10:51AM 32.8833 -96.7167 348° North 310 357 11,500 2,580 Climbing Dallas / Fort Worth TRACON
10:52AM 32.9500 -96.7667 328° Northwest 330 380 13,700 1,980 Climbing Dallas / Fort Worth TRACON
10:54AM 33.1225 -96.8825 331° Northwest 371 427 17,400 1,800 Climbing Fort Worth Center
10:55AM 33.2208 -96.9517 330° Northwest 371 427 19,400 1,440 Climbing Fort Worth Center
10:56AM 33.3044 -97.0083 330° Northwest 383 441 20,300 900 Climbing Fort Worth Center
10:57AM 33.4092 -97.0800 330° Northwest 388 447 21,300 1,080 Climbing Fort Worth Center
10:58AM 33.5008 -97.1019 349° North 372 428 22,500 1,500 Climbing Fort Worth Center
10:59AM 33.6094 -97.0842 North 372 428 24,400 1,500 Climbing Fort Worth Center
11:00AM 33.7158 -97.0464 16° North 387 445 25,500 1,020 Climbing Fort Worth Center
11:01AM 33.8264 -97.0058 17° North 393 452 26,500 960 Climbing Fort Worth Center
11:02AM 33.9431 -96.9653 16° North 413 475 27,500 960 Climbing Fort Worth Center
11:03AM 34.0639 -96.9219 17° North 428 493 28,500 1,020 Climbing Fort Worth Center
11:04AM 34.1911 -96.8761 17° North 434 499 29,600 1,020 Climbing Fort Worth Center
11:05AM 34.3097 -96.8378 15° North 439 505 30,600 660 Climbing Fort Worth Center
11:06AM 34.4306 -96.7917 17° North 439 505 31,000 180 Climbing Fort Worth Center
11:07AM 34.5575 -96.7478 16° North 446 513 31,000  Level Fort Worth Center
11:08AM 34.6889 -96.6989 17° North 471 542 31,000  Level Fort Worth Center
11:09AM 34.8219 -96.6522 16° North 477 549 31,000  Level Fort Worth Center
11:10AM 34.9511 -96.6031 17° North 477 549 31,000  Level Fort Worth Center
11:11AM 35.0697 -96.5611 16° North 483 556 31,000  Level Fort Worth Center
11:12AM 35.1986 -96.5117 17° North 483 556 31,000  Level Fort Worth Center
11:13AM 35.3297 -96.4644 16° North 483 556 31,000  Level Fort Worth Center
11:15AM 35.6472 -96.3447 17° North 496 571 31,000  Level Kansas City Center
11:16AM 35.7797 -96.2978 16° North 497 572 31,000  Level Kansas City Center
11:17AM 35.9081 -96.2500 17° North 494 568 31,000  Level Kansas City Center
11:18AM 36.0400 -96.2017 16° North 492 566 31,000  Level Kansas City Center
11:19AM 36.1708 -96.1536 17° North 490 564 31,000  Level Kansas City Center
11:20AM 36.3306 -96.0931 17° North 493 567 31,000  Level Kansas City Center
11:21AM 36.4653 -96.0428 17° North 498 573 31,000  Level Kansas City Center
11:22AM 36.5986 -95.9922 17° North 497 572 31,000  Level Kansas City Center
11:23AM 36.7325 -95.9406 17° North 497 572 31,000  Level Kansas City Center
11:24AM 36.8664 -95.8892 17° North 498 573 31,000  Level Kansas City Center
11:25AM 36.9994 -95.8386 17° North 498 573 31,000  Level Kansas City Center
11:26AM 37.1325 -95.7861 17° North 498 573 31,000  Level Kansas City Center
11:27AM 37.2689 -95.7567 10° North 498 573 31,000  Level Kansas City Center
11:28AM 37.4328 -95.7222 North 496 571 31,000  Level Kansas City Center
11:29AM 37.5689 -95.6944 North 494 568 31,000 -60 Level Kansas City Center
11:31AM 37.7053 -95.6644 10° North 495 570 30,900 -1,260 Descending Kansas City Center
11:32AM 37.8433 -95.6353 North 499 574 28,400 -2,640 Descending Kansas City Center
11:33AM 37.9800 -95.6050 10° North 488 562 25,500 -2,280 Descending Kansas City Center
11:34AM 38.1194 -95.5750 10° North 456 525 23,800 -1,740 Descending Kansas City Center
11:35AM 38.2381 -95.5483 10° North 452 520 22,000 -2,160 Descending Kansas City Center
11:36AM 38.3728 -95.5194 10° North 440 506 19,300 -2,400 Descending Kansas City Center
11:37AM 38.4778 -95.4775 17° North 417 480 17,000 -2,280 Descending Kansas City Center
11:38AM 38.5939 -95.4253 19° North 395 455 14,700 -2,040 Descending Kansas City Center
11:39AM 38.6914 -95.3836 18° North 388 447 12,800 -1,560 Descending Kansas City Center
11:40AM 38.7847 -95.3425 19° North 372 428 11,500 -900 Descending Kansas City Center
11:41AM 38.8931 -95.2925 20° North 371 427 11,000 -300 Descending Kansas City Center
11:42AM 38.9606 -95.2011 46° Northeast 373 429 11,000  Level Kansas City Center
11:43AM 39.0319 -95.1003 48° Northeast 345 397 11,000  Level Kansas City Center
11:44AM 39.1017 -95.0008 48° Northeast 340 391 11,000 -780 Level Kansas City Center
11:45AM 39.1764 -94.9550 25° Northeast 312 359 9,500 -1,680 Descending Kansas City Center
11:46AM 39.2611 -94.9067 24° Northeast 302 348 7,600 -1,500 Descending Kansas City Center
11:47AM 39.3219 -94.8519 35° Northeast 299 344 6,500 -1,260 Descending Kansas City Center
11:48AM 39.3383 -94.7425 79° East 281 323 5,100 -1,260 Descending Kansas City Center
11:49AM 39.3392 -94.6511 89° East 266 306 4,000 -600 Descending Kansas City Center
11:50AM 39.3117 -94.5897 120° Southeast 206 237 3,900 -720 Descending Kansas City Center
11:51AM 39.2597 -94.5575 154° Southeast 186 214 2,600 -780 Descending Kansas City Center
11:52AM 39.2161 -94.5653 188° South 166 191 2,400 -540 Descending Kansas City Center
11:53AM 39.1706 -94.5789 193° South 150 173 1,500 -720 Descending Kansas City Center
11:54AM 39.1353 -94.5881 191° South 143 165 1,000 -540 Descending Kansas City Center